Time,TemperatureF,DewpointF,PressureIn,WindDirection,WindDirectionDegrees,WindSpeedMPH,WindSpeedGustMPH,Humidity,HourlyPrecipIn,Conditions,Clouds,dailyrainin,SoftwareType,DateUTC
2013-11-25 00:01:00,-34.7,-44.6,30.33,North,0,0.0,0.0,56,0.00,,,0.00,WUHU216HW,2013-11-25 05:01:00,
2013-11-25 00:06:00,-25.0,-33.7,30.33,North,0,0.0,0.0,62,0.00,,,0.00,WUHU216HW,2013-11-25 05:06:00,
2013-11-25 00:11:00,-18.0,-26.3,30.32,North,0,0.0,0.0,65,0.00,,,0.00,WUHU216HW,2013-11-25 05:11:00,
2013-11-25 00:17:00,-13.0,-20.2,30.32,North,0,0.0,0.0,69,0.00,,,0.00,WUHU216HW,2013-11-25 05:17:00,
2013-11-25 00:22:00,-7.0,-15.5,30.32,North,0,0.0,0.0,66,0.00,,,0.00,WUHU216HW,2013-11-25 05:22:00,
2013-11-25 00:27:00,-7.0,-15.5,30.32,North,0,0.0,0.0,66,0.00,,,0.00,WUHU216HW,2013-11-25 05:27:00,
2013-11-25 00:52:00,17.8,13.1,30.33,North,0,0.0,0.0,82,0.00,,,0.00,WUHU216HW,2013-11-25 05:52:00,
2013-11-25 00:57:00,17.8,13.2,30.33,North,0,0.0,0.0,82,0.00,,,0.00,WUHU216HW,2013-11-25 05:57:00,
2013-11-25 01:02:00,17.8,13.2,30.32,North,0,0.0,0.0,82,0.00,,,0.00,WUHU216HW,2013-11-25 06:02:00,
2013-11-25 01:07:00,-39.2,-49.4,30.32,North,0,0.0,0.0,54,0.00,,,0.00,WUHU216HW,2013-11-25 06:07:00,
2013-11-25 01:12:00,-39.2,-49.4,30.32,North,0,0.0,0.0,54,0.00,,,0.00,WUHU216HW,2013-11-25 06:12:00,
2013-11-25 01:17:00,-39.2,-49.7,30.33,North,0,0.0,0.0,53,0.00,,,0.00,WUHU216HW,2013-11-25 06:17:00,
2013-11-25 01:22:00,-31.5,-42.2,30.33,North,0,0.0,0.0,54,0.00,,,0.00,WUHU216HW,2013-11-25 06:22:00,
2013-11-25 01:27:00,-24.8,-35.9,30.33,North,0,0.0,0.0,55,0.00,,,0.00,WUHU216HW,2013-11-25 06:27:00,
2013-11-25 01:32:00,-20.3,-31.9,30.33,North,0,0.0,0.0,54,0.00,,,0.00,WUHU216HW,2013-11-25 06:32:00,
2013-11-25 01:37:00,-16.6,-29.1,30.33,North,0,0.0,0.0,52,0.00,,,0.00,WUHU216HW,2013-11-25 06:37:00,
2013-11-25 01:42:00,-12.1,-22.9,30.33,North,0,0.0,0.0,58,0.00,,,0.00,WUHU216HW,2013-11-25 06:42:00,
2013-11-25 01:47:00,-7.6,-14.5,30.32,North,0,0.0,0.0,71,0.00,,,0.00,WUHU216HW,2013-11-25 06:47:00,
2013-11-25 01:52:00,-3.2,-10.9,30.32,North,0,0.0,0.0,69,0.00,,,0.00,WUHU216HW,2013-11-25 06:52:00,
2013-11-25 01:57:00,-1.3,-8.6,30.32,North,0,0.0,0.0,70,0.00,,,0.00,WUHU216HW,2013-11-25 06:57:00,
2013-11-25 02:02:00,3.4,-4.1,30.33,North,0,0.0,0.0,70,0.00,,,0.00,WUHU216HW,2013-11-25 07:02:00,
2013-11-25 02:07:00,8.6,-61.6,30.33,North,0,0.0,0.0,1,0.00,,,0.00,WUHU216HW,2013-11-25 07:07:00,
2013-11-25 02:12:00,5.7,-16.8,30.33,North,0,0.0,0.0,34,0.00,,,0.00,WUHU216HW,2013-11-25 07:12:00,
2013-11-25 02:17:00,6.5,-11.9,30.32,North,0,0.0,0.0,42,0.00,,,0.00,WUHU216HW,2013-11-25 07:17:00,
2013-11-25 02:22:00,-39.2,-52.1,30.33,North,0,0.0,0.0,46,0.00,,,0.00,WUHU216HW,2013-11-25 07:22:00,
2013-11-25 02:27:00,-39.2,-57.3,30.33,North,0,0.0,0.0,33,0.00,,,0.00,WUHU216HW,2013-11-25 07:27:00,
2013-11-25 02:32:00,-39.2,-61.5,30.33,North,0,0.0,0.0,25,0.00,,,0.00,WUHU216HW,2013-11-25 07:32:00,
2013-11-25 02:37:00,-34.9,-64.3,30.32,North,0,0.0,0.0,16,0.00,,,0.00,WUHU216HW,2013-11-25 07:37:00,
2013-11-25 02:42:00,-28.8,-69.5,30.32,North,0,0.0,0.0,8,0.00,,,0.00,WUHU216HW,2013-11-25 07:42:00,
2013-11-25 02:47:00,-28.8,-69.5,30.32,North,0,0.0,0.0,8,0.00,,,0.00,WUHU216HW,2013-11-25 07:47:00,
2013-11-25 02:52:00,-18.4,-79.7,30.32,North,0,0.0,0.0,1,0.00,,,0.00,WUHU216HW,2013-11-25 07:52:00,
2013-11-25 02:57:00,-14.4,-77.0,30.32,North,0,0.0,0.0,1,0.00,,,0.00,WUHU216HW,2013-11-25 07:57:00,
2013-11-25 03:02:00,-10.3,-74.3,30.32,North,0,0.0,0.0,1,0.00,,,0.00,WUHU216HW,2013-11-25 08:02:00,
2013-11-25 03:07:00,-6.8,-71.9,30.32,North,0,0.0,0.0,1,0.00,,,0.00,WUHU216HW,2013-11-25 08:07:00,
2013-11-25 03:12:00,-4.7,-70.5,30.32,North,0,0.0,0.0,1,0.00,,,0.00,WUHU216HW,2013-11-25 08:12:00,
2013-11-25 03:17:00,-2.7,-69.2,30.32,North,0,0.0,0.0,1,0.00,,,0.00,WUHU216HW,2013-11-25 08:17:00,
2013-11-25 03:22:00,-0.4,-67.6,30.32,North,0,0.0,0.0,1,0.00,,,0.00,WUHU216HW,2013-11-25 08:22:00,
2013-11-25 03:27:00,-1.1,-61.9,30.33,North,0,0.0,0.0,3,0.00,,,0.00,WUHU216HW,2013-11-25 08:27:00,
2013-11-25 03:32:00,-0.7,-53.0,30.32,North,0,0.0,0.0,6,0.00,,,0.00,WUHU216HW,2013-11-25 08:32:00,
2013-11-25 03:37:00,-39.2,-78.7,30.32,North,0,0.0,0.0,7,0.00,,,0.00,WUHU216HW,2013-11-25 08:37:00,
2013-11-25 03:42:00,-39.2,-56.9,30.33,North,0,0.0,0.0,34,0.00,,,0.00,WUHU216HW,2013-11-25 08:42:00,
2013-11-25 03:47:00,-39.2,-62.7,30.32,North,0,0.0,0.0,23,0.00,,,0.00,WUHU216HW,2013-11-25 08:47:00,
2013-11-25 03:52:00,-39.2,-70.8,30.32,North,0,0.0,0.0,13,0.00,,,0.00,WUHU216HW,2013-11-25 08:52:00,
2013-11-25 03:57:00,-39.2,-77.5,30.32,North,0,0.0,0.0,8,0.00,,,0.00,WUHU216HW,2013-11-25 08:57:00,
2013-11-25 04:02:00,-35.6,-76.5,30.33,North,0,0.0,0.0,7,0.00,,,0.00,WUHU216HW,2013-11-25 09:02:00,
2013-11-25 04:07:00,-35.6,-76.5,30.33,North,0,0.0,0.0,7,0.00,,,0.00,WUHU216HW,2013-11-25 09:07:00,
2013-11-25 04:26:00,-21.2,-81.6,30.33,North,0,0.0,0.0,1,0.00,,,0.00,WUHU216HW,2013-11-25 09:26:00,
2013-11-25 04:31:00,-19.3,-80.4,30.33,North,0,0.0,0.0,1,0.00,,,0.00,WUHU216HW,2013-11-25 09:31:00,
2013-11-25 04:36:00,-16.9,-78.7,30.33,North,0,0.0,0.0,1,0.00,,,0.00,WUHU216HW,2013-11-25 09:36:00,
2013-11-25 04:41:00,-17.3,-79.0,30.33,North,0,0.0,0.0,1,0.00,,,0.00,WUHU216HW,2013-11-25 09:41:00,
2013-11-25 04:46:00,-16.5,-78.5,30.33,North,0,0.0,0.0,1,0.00,,,0.00,WUHU216HW,2013-11-25 09:46:00,
2013-11-25 04:51:00,-39.2,-55.1,30.33,North,0,0.0,0.0,38,0.00,,,0.00,WUHU216HW,2013-11-25 09:51:00,
2013-11-25 04:56:00,-39.2,-54.3,30.32,North,0,0.0,0.0,40,0.00,,,0.00,WUHU216HW,2013-11-25 09:56:00,
2013-11-25 05:01:00,-39.2,-56.9,30.33,North,0,0.0,0.0,34,0.00,,,0.00,WUHU216HW,2013-11-25 10:01:00,
2013-11-25 05:06:00,-39.2,-58.3,30.33,North,0,0.0,0.0,31,0.00,,,0.00,WUHU216HW,2013-11-25 10:06:00,
2013-11-25 05:11:00,-39.2,-61.5,30.33,North,0,0.0,0.0,25,0.00,,,0.00,WUHU216HW,2013-11-25 10:11:00,
2013-11-25 05:16:00,-39.2,-64.0,30.33,North,0,0.0,0.0,21,0.00,,,0.00,WUHU216HW,2013-11-25 10:16:00,
2013-11-25 05:21:00,-39.2,-66.2,30.33,North,0,0.0,0.0,18,0.00,,,0.00,WUHU216HW,2013-11-25 10:21:00,
2013-11-25 05:26:00,-39.2,-67.0,30.33,North,0,0.0,0.0,17,0.00,,,0.00,WUHU216HW,2013-11-25 10:26:00,
2013-11-25 05:31:00,-38.7,-74.1,30.33,North,0,0.0,0.0,10,0.00,,,0.00,WUHU216HW,2013-11-25 10:31:00,
2013-11-25 05:36:00,-37.4,-74.6,30.33,North,0,0.0,0.0,9,0.00,,,0.00,WUHU216HW,2013-11-25 10:36:00,
2013-11-25 05:41:00,-36.0,-80.8,30.33,North,0,0.0,0.0,5,0.00,,,0.00,WUHU216HW,2013-11-25 10:41:00,
2013-11-25 05:46:00,-36.0,-80.8,30.33,North,0,0.0,0.0,5,0.00,,,0.00,WUHU216HW,2013-11-25 10:46:00,
2013-11-25 05:57:00,-39.2,-62.1,30.32,North,0,0.0,0.0,24,0.00,,,0.00,WUHU216HW,2013-11-25 10:57:00,
2013-11-25 06:02:00,-39.2,-57.8,30.33,North,0,0.0,0.0,32,0.00,,,0.00,WUHU216HW,2013-11-25 11:02:00,
2013-11-25 06:07:00,-39.2,-56.0,30.33,North,0,0.0,0.0,36,0.00,,,0.00,WUHU216HW,2013-11-25 11:07:00,
2013-11-25 06:12:00,-39.2,-55.1,30.33,North,0,0.0,0.0,38,0.00,,,0.00,WUHU216HW,2013-11-25 11:12:00,
2013-11-25 06:17:00,-39.2,-59.3,30.32,North,0,0.0,0.0,29,0.00,,,0.00,WUHU216HW,2013-11-25 11:17:00,
2013-11-25 06:22:00,-39.2,-64.0,30.33,North,0,0.0,0.0,21,0.00,,,0.00,WUHU216HW,2013-11-25 11:22:00,
2013-11-25 06:27:00,-39.2,-68.8,30.33,North,0,0.0,0.0,15,0.00,,,0.00,WUHU216HW,2013-11-25 11:27:00,
2013-11-25 06:32:00,-39.2,-70.8,30.33,North,0,0.0,0.0,13,0.00,,,0.00,WUHU216HW,2013-11-25 11:32:00,
2013-11-25 06:36:00,-39.2,-81.1,30.33,North,0,0.0,0.0,6,0.00,,,0.00,WUHU216HW,2013-11-25 11:36:00,
2013-11-25 06:41:00,-39.2,-73.4,30.33,North,0,0.0,0.0,11,0.00,,,0.00,WUHU216HW,2013-11-25 11:41:00,
2013-11-25 06:46:00,-39.2,-78.2,30.33,North,0,0.0,0.0,8,0.00,,,0.00,WUHU216HW,2013-11-25 11:46:00,
2013-11-25 06:51:00,-39.2,-75.6,30.34,North,0,0.0,0.0,9,0.00,,,0.00,WUHU216HW,2013-11-25 11:51:00,
2013-11-25 06:56:00,-39.2,-75.6,30.34,North,0,0.0,0.0,9,0.00,,,0.00,WUHU216HW,2013-11-25 11:56:00,
2013-11-25 07:01:00,-39.1,-75.5,30.33,North,0,0.0,0.0,9,0.00,,,0.00,WUHU216HW,2013-11-25 12:01:00,
2013-11-25 07:06:00,-39.1,-75.5,30.33,North,0,0.0,0.0,9,0.00,,,0.00,WUHU216HW,2013-11-25 12:06:00,
2013-11-25 07:12:00,-39.2,-75.6,30.33,North,0,0.0,0.0,9,0.00,,,0.00,WUHU216HW,2013-11-25 12:12:00,
2013-11-25 07:17:00,-39.2,-56.9,30.33,North,0,0.0,0.0,34,0.00,,,0.00,WUHU216HW,2013-11-25 12:17:00,
2013-11-25 07:21:00,-39.2,-56.4,30.34,North,0,0.0,0.0,35,0.00,,,0.00,WUHU216HW,2013-11-25 12:21:00,
2013-11-25 07:26:00,-39.2,-56.4,30.34,North,0,0.0,0.0,35,0.00,,,0.00,WUHU216HW,2013-11-25 12:26:00,
2013-11-25 07:31:00,-39.2,-59.3,30.34,North,0,0.0,0.0,29,0.00,,,0.00,WUHU216HW,2013-11-25 12:31:00,
2013-11-25 07:37:00,-39.2,-63.3,30.34,North,0,0.0,0.0,22,0.00,,,0.00,WUHU216HW,2013-11-25 12:37:00,
2013-11-25 07:42:00,-39.2,-63.3,30.34,North,0,0.0,0.0,22,0.00,,,0.00,WUHU216HW,2013-11-25 12:42:00,
2013-11-25 07:46:00,-39.2,-66.2,30.34,North,0,0.0,0.0,18,0.00,,,0.00,WUHU216HW,2013-11-25 12:46:00,
2013-11-25 07:51:00,-39.2,-67.0,30.35,North,0,0.0,0.0,17,0.00,,,0.00,WUHU216HW,2013-11-25 12:51:00,
2013-11-25 07:56:00,-39.2,-76.0,30.35,North,0,0.0,0.0,9,0.00,,,0.00,WUHU216HW,2013-11-25 12:56:00,
2013-11-25 08:01:00,-39.2,-77.5,30.35,North,0,0.0,0.0,8,0.00,,,0.00,WUHU216HW,2013-11-25 13:01:00,
2013-11-25 08:06:00,-39.2,-78.7,30.34,North,0,0.0,0.0,7,0.00,,,0.00,WUHU216HW,2013-11-25 13:06:00,
2013-11-25 08:11:00,-39.2,-79.4,30.34,North,0,0.0,0.0,7,0.00,,,0.00,WUHU216HW,2013-11-25 13:11:00,
2013-11-25 08:16:00,-39.2,-79.4,30.34,North,0,0.0,0.0,7,0.00,,,0.00,WUHU216HW,2013-11-25 13:16:00,
2013-11-25 08:28:00,-39.2,-74.5,30.34,North,0,0.0,0.0,10,0.00,,,0.00,WUHU216HW,2013-11-25 13:28:00,
2013-11-25 08:33:00,-39.2,-66.2,30.34,North,0,0.0,0.0,18,0.00,,,0.00,WUHU216HW,2013-11-25 13:33:00,
2013-11-25 08:38:00,-39.2,-60.9,30.35,North,0,0.0,0.0,26,0.00,,,0.00,WUHU216HW,2013-11-25 13:38:00,
2013-11-25 08:43:00,-39.2,-62.1,30.34,North,0,0.0,0.0,24,0.00,,,0.00,WUHU216HW,2013-11-25 13:43:00,
2013-11-25 08:48:00,-39.2,-67.9,30.34,North,0,0.0,0.0,16,0.00,,,0.00,WUHU216HW,2013-11-25 13:48:00,
2013-11-25 08:53:00,-39.2,-66.3,30.34,North,0,0.0,0.0,18,0.00,,,0.00,WUHU216HW,2013-11-25 13:53:00,
2013-11-25 08:58:00,-39.2,-68.0,30.34,North,0,0.0,0.0,16,0.00,,,0.00,WUHU216HW,2013-11-25 13:58:00,
2013-11-25 09:03:00,-39.2,-68.0,30.34,North,0,0.0,0.0,16,0.00,,,0.00,WUHU216HW,2013-11-25 14:03:00,
2013-11-25 09:08:00,-21.6,-81.9,30.34,North,0,0.0,0.0,1,0.00,,,0.00,WUHU216HW,2013-11-25 14:08:00,
2013-11-25 09:13:00,-8.8,-73.3,30.34,North,0,0.0,0.0,1,0.00,,,0.00,WUHU216HW,2013-11-25 14:13:00,
2013-11-25 09:18:00,-8.6,-73.1,30.35,North,0,0.0,0.0,1,0.00,,,0.00,WUHU216HW,2013-11-25 14:18:00,
2013-11-25 09:23:00,-8.3,-72.9,30.35,North,0,0.0,0.0,1,0.00,,,0.00,WUHU216HW,2013-11-25 14:23:00,
2013-11-25 09:28:00,-3.2,-69.5,30.34,North,0,0.0,0.0,1,0.00,,,0.00,WUHU216HW,2013-11-25 14:28:00,
2013-11-25 09:33:00,5.8,-63.5,30.33,North,0,0.0,0.0,1,0.00,,,0.00,WUHU216HW,2013-11-25 14:33:00,
2013-11-25 09:38:00,-0.7,-67.8,30.33,North,0,0.0,0.0,1,0.00,,,0.00,WUHU216HW,2013-11-25 14:38:00,
2013-11-25 09:43:00,0.4,-67.1,30.33,North,0,0.0,0.0,1,0.00,,,0.00,WUHU216HW,2013-11-25 14:43:00,
2013-11-25 09:47:00,-0.1,-35.4,30.33,North,0,0.0,0.0,16,0.00,,,0.00,WUHU216HW,2013-11-25 14:47:00,
2013-11-25 09:52:00,0.2,-32.3,30.34,North,0,0.0,0.0,19,0.00,,,0.00,WUHU216HW,2013-11-25 14:52:00,
2013-11-25 09:57:00,0.2,-32.3,30.34,North,0,0.0,0.0,19,0.00,,,0.00,WUHU216HW,2013-11-25 14:57:00,
2013-11-25 10:12:00,-20.9,-81.4,30.33,North,0,0.0,0.0,1,0.00,,,0.00,WUHU216HW,2013-11-25 15:12:00,
2013-11-25 10:17:00,-18.0,-79.5,30.34,North,0,0.0,0.0,1,0.00,,,0.00,WUHU216HW,2013-11-25 15:17:00,
2013-11-25 10:22:00,-13.3,-76.3,30.35,North,0,0.0,0.0,1,0.00,,,0.00,WUHU216HW,2013-11-25 15:22:00,
2013-11-25 10:27:00,-9.5,-73.7,30.34,North,0,0.0,0.0,1,0.00,,,0.00,WUHU216HW,2013-11-25 15:27:00,
2013-11-25 10:32:00,-6.8,-71.9,30.33,North,0,0.0,0.0,1,0.00,,,0.00,WUHU216HW,2013-11-25 15:32:00,
2013-11-25 10:37:00,-1.3,-68.2,30.34,North,0,0.0,0.0,1,0.00,,,0.00,WUHU216HW,2013-11-25 15:37:00,
2013-11-25 10:42:00,4.0,-64.7,30.34,North,0,0.0,0.0,1,0.00,,,0.00,WUHU216HW,2013-11-25 15:42:00,
2013-11-25 10:47:00,5.4,-63.7,30.34,North,0,0.0,0.0,1,0.00,,,0.00,WUHU216HW,2013-11-25 15:47:00,
2013-11-25 10:52:00,5.4,-63.7,30.34,North,0,0.0,0.0,1,0.00,,,0.00,WUHU216HW,2013-11-25 15:52:00,
2013-11-25 10:57:00,9.5,-61.0,30.33,North,0,0.0,0.0,1,0.00,,,0.00,WUHU216HW,2013-11-25 15:57:00,
2013-11-25 11:02:00,7.9,-45.8,30.33,North,0,0.0,0.0,6,0.00,,,0.00,WUHU216HW,2013-11-25 16:02:00,
2013-11-25 11:08:00,8.8,-29.3,30.32,North,0,0.0,0.0,15,0.00,,,0.00,WUHU216HW,2013-11-25 16:08:00,
2013-11-25 11:13:00,8.5,-23.4,30.33,North,0,0.0,0.0,21,0.00,,,0.00,WUHU216HW,2013-11-25 16:13:00,
2013-11-25 11:18:00,8.5,-23.4,30.33,North,0,0.0,0.0,21,0.00,,,0.00,WUHU216HW,2013-11-25 16:18:00,
2013-11-25 11:24:00,-21.2,-81.6,30.32,North,0,0.0,0.0,1,0.00,,,0.00,WUHU216HW,2013-11-25 16:24:00,
2013-11-25 11:29:00,-15.5,-77.8,30.31,North,0,0.0,0.0,1,0.00,,,0.00,WUHU216HW,2013-11-25 16:29:00,
2013-11-25 11:34:00,-7.6,-72.4,30.31,North,0,0.0,0.0,1,0.00,,,0.00,WUHU216HW,2013-11-25 16:34:00,
2013-11-25 11:39:00,-0.4,-67.6,30.30,North,0,0.0,0.0,1,0.00,,,0.00,WUHU216HW,2013-11-25 16:39:00,
2013-11-25 11:44:00,7.2,-62.5,30.30,North,0,0.0,0.0,1,0.00,,,0.00,WUHU216HW,2013-11-25 16:44:00,
2013-11-25 11:49:00,16.4,-56.4,30.29,North,0,0.0,0.0,1,0.00,,,0.00,WUHU216HW,2013-11-25 16:49:00,
2013-11-25 11:54:00,22.0,-26.5,30.29,North,0,0.0,0.0,1,0.00,,,0.00,WUHU216HW,2013-11-25 16:54:00,
2013-11-25 11:59:00,20.8,-53.5,30.28,North,0,0.0,0.0,1,0.00,,,0.00,WUHU216HW,2013-11-25 16:59:00,
2013-11-25 12:04:00,22.8,-52.2,30.28,North,0,0.0,0.0,1,0.00,,,0.00,WUHU216HW,2013-11-25 17:04:00,
2013-11-25 12:09:00,47.0,-6.7,30.28,North,0,0.0,0.0,1,0.00,,,0.00,WUHU216HW,2013-11-25 17:09:00,
2013-11-25 12:14:00,46.1,-7.5,30.28,North,0,0.0,0.0,1,0.00,,,0.00,WUHU216HW,2013-11-25 17:14:00,
2013-11-25 12:19:00,45.2,-37.5,30.27,North,0,0.0,0.0,1,0.00,,,0.00,WUHU216HW,2013-11-25 17:19:00,
2013-11-25 12:24:00,45.2,-37.5,30.27,North,0,0.0,0.0,1,0.00,,,0.00,WUHU216HW,2013-11-25 17:24:00,
2013-11-25 12:29:00,45.2,-8.5,30.28,North,0,0.0,0.0,10,0.00,,,0.00,WUHU216HW,2013-11-25 17:29:00,
2013-11-25 12:34:00,45.2,-8.5,30.28,North,0,0.0,0.0,10,0.00,,,0.00,WUHU216HW,2013-11-25 17:34:00,
2013-11-25 12:39:00,45.2,-37.5,30.27,North,0,0.0,0.0,1,0.00,,,0.00,WUHU216HW,2013-11-25 17:39:00,
2013-11-25 12:44:00,-4.1,-70.1,30.26,North,0,0.0,0.0,1,0.00,,,0.00,WUHU216HW,2013-11-25 17:44:00,
2013-11-25 12:49:00,3.4,-65.1,30.26,North,0,0.0,0.0,1,0.00,,,0.00,WUHU216HW,2013-11-25 17:49:00,
2013-11-25 12:54:00,12.6,-58.9,30.26,North,0,0.0,0.0,1,0.00,,,0.00,WUHU216HW,2013-11-25 17:54:00,
2013-11-25 12:59:00,17.6,-55.6,30.26,North,0,0.0,0.0,1,0.00,,,0.00,WUHU216HW,2013-11-25 17:59:00,
2013-11-25 13:04:00,21.6,-26.7,30.26,North,0,0.0,0.0,1,0.00,,,0.00,WUHU216HW,2013-11-25 18:04:00,
2013-11-25 13:09:00,26.8,-22.5,30.25,North,0,0.0,0.0,1,0.00,,,0.00,WUHU216HW,2013-11-25 18:09:00,
2013-11-25 13:14:00,32.8,-17.8,30.25,North,0,0.0,0.0,1,0.00,,,0.00,WUHU216HW,2013-11-25 18:14:00,
2013-11-25 13:19:00,37.1,-14.5,30.25,North,0,0.0,0.0,1,0.00,,,0.00,WUHU216HW,2013-11-25 18:19:00,
2013-11-25 13:24:00,41.4,-11.1,30.25,North,0,0.0,0.0,1,0.00,,,0.00,WUHU216HW,2013-11-25 18:24:00,
2013-11-25 13:29:00,45.7,-7.7,30.25,North,0,0.0,0.0,1,0.00,,,0.00,WUHU216HW,2013-11-25 18:29:00,
2013-11-25 13:34:00,43.1,-38.8,30.24,North,0,0.0,0.0,1,0.00,,,0.00,WUHU216HW,2013-11-25 18:34:00,
2013-11-25 13:39:00,43.9,6.3,30.24,North,0,0.0,0.0,21,0.00,,,0.00,WUHU216HW,2013-11-25 18:39:00,
2013-11-25 13:44:00,43.9,6.3,30.24,North,0,0.0,0.0,21,0.00,,,0.00,WUHU216HW,2013-11-25 18:44:00,
2013-11-25 13:49:00,-14.4,-77.0,30.23,North,0,0.0,0.0,1,0.00,,,0.00,WUHU216HW,2013-11-25 18:49:00,
2013-11-25 13:54:00,-12.9,-76.0,30.22,North,0,0.0,0.0,1,0.00,,,0.00,WUHU216HW,2013-11-25 18:54:00,
2013-11-25 13:59:00,-12.2,-75.6,30.23,North,0,0.0,0.0,1,0.00,,,0.00,WUHU216HW,2013-11-25 18:59:00,
2013-11-25 14:04:00,17.5,-29.9,30.22,North,0,0.0,0.0,1,0.00,,,0.00,WUHU216HW,2013-11-25 19:04:00,
2013-11-25 14:09:00,23.4,-25.3,30.22,North,0,0.0,0.0,1,0.00,,,0.00,WUHU216HW,2013-11-25 19:09:00,
2013-11-25 14:14:00,33.1,-17.6,30.22,North,0,0.0,0.0,1,0.00,,,0.00,WUHU216HW,2013-11-25 19:14:00,
2013-11-25 14:19:00,38.2,-13.7,30.22,North,0,0.0,0.0,1,0.00,,,0.00,WUHU216HW,2013-11-25 19:19:00,
2013-11-25 14:24:00,47.2,-6.7,30.22,North,0,0.0,0.0,1,0.00,,,0.00,WUHU216HW,2013-11-25 19:24:00,
2013-11-25 14:29:00,53.8,-31.8,30.22,North,0,0.0,0.0,1,0.00,,,0.00,WUHU216HW,2013-11-25 19:29:00,
2013-11-25 14:34:00,57.6,-29.4,30.22,North,0,0.0,0.0,1,0.00,,,0.00,WUHU216HW,2013-11-25 19:34:00,
2013-11-25 14:39:00,61.0,4.2,30.21,North,0,0.0,0.0,1,0.00,,,0.00,WUHU216HW,2013-11-25 19:39:00,
2013-11-25 14:44:00,63.5,6.0,30.20,North,0,0.0,0.0,1,0.00,,,0.00,WUHU216HW,2013-11-25 19:44:00,
2013-11-25 14:49:00,62.3,-26.3,30.20,North,0,0.0,0.0,1,0.00,,,0.00,WUHU216HW,2013-11-25 19:49:00,
2013-11-25 14:54:00,62.6,-26.1,30.20,North,0,0.0,0.0,1,0.00,,,0.00,WUHU216HW,2013-11-25 19:54:00,
2013-11-25 14:59:00,62.3,-26.4,30.21,North,0,0.0,0.0,1,0.00,,,0.00,WUHU216HW,2013-11-25 19:59:00,
2013-11-25 15:04:00,62.3,-26.4,30.21,North,0,0.0,0.0,1,0.00,,,0.00,WUHU216HW,2013-11-25 20:04:00,
2013-11-25 15:09:00,8.6,-36.9,30.21,North,0,0.0,0.0,1,0.00,,,0.00,WUHU216HW,2013-11-25 20:09:00,
2013-11-25 15:14:00,20.7,-27.3,30.21,North,0,0.0,0.0,1,0.00,,,0.00,WUHU216HW,2013-11-25 20:14:00,
2013-11-25 15:19:00,16.6,-56.3,30.20,North,0,0.0,0.0,1,0.00,,,0.00,WUHU216HW,2013-11-25 20:19:00,
2013-11-25 15:24:00,18.7,-54.8,30.20,North,0,0.0,0.0,1,0.00,,,0.00,WUHU216HW,2013-11-25 20:24:00,
2013-11-25 15:29:00,40.0,-12.2,30.21,North,0,0.0,0.0,1,0.00,,,0.00,WUHU216HW,2013-11-25 20:29:00,
2013-11-25 15:34:00,45.9,-7.6,30.21,North,0,0.0,0.0,1,0.00,,,0.00,WUHU216HW,2013-11-25 20:34:00,
2013-11-25 15:39:00,51.7,-3.2,30.21,North,0,0.0,0.0,1,0.00,,,0.00,WUHU216HW,2013-11-25 20:39:00,
2013-11-25 15:44:00,56.5,0.5,30.21,North,0,0.0,0.0,1,0.00,,,0.00,WUHU216HW,2013-11-25 20:44:00,
2013-11-25 15:49:00,60.5,3.7,30.20,North,0,0.0,0.0,1,0.00,,,0.00,WUHU216HW,2013-11-25 20:49:00,
2013-11-25 15:54:00,64.1,6.4,30.21,North,0,0.0,0.0,1,0.00,,,0.00,WUHU216HW,2013-11-25 20:54:00,
2013-11-25 15:59:00,67.3,9.0,30.21,North,0,0.0,0.0,1,0.00,,,0.00,WUHU216HW,2013-11-25 20:59:00,
2013-11-25 16:04:00,65.9,-24.0,30.21,North,0,0.0,0.0,1,0.00,,,0.00,WUHU216HW,2013-11-25 21:04:00,
2013-11-25 16:09:00,66.4,-23.7,30.21,North,0,0.0,0.0,1,0.00,,,0.00,WUHU216HW,2013-11-25 21:09:00,
2013-11-25 16:14:00,66.1,-23.8,30.20,North,0,0.0,0.0,1,0.00,,,0.00,WUHU216HW,2013-11-25 21:14:00,
2013-11-25 16:19:00,66.1,-23.8,30.20,North,0,0.0,0.0,1,0.00,,,0.00,WUHU216HW,2013-11-25 21:19:00,
2013-11-25 16:24:00,1.8,-66.1,30.20,North,0,0.0,0.0,1,0.00,,,0.00,WUHU216HW,2013-11-25 21:24:00,
2013-11-25 16:29:00,12.4,-59.1,30.20,North,0,0.0,0.0,1,0.00,,,0.00,WUHU216HW,2013-11-25 21:29:00,
2013-11-25 16:34:00,8.8,-61.5,30.20,North,0,0.0,0.0,1,0.00,,,0.00,WUHU216HW,2013-11-25 21:34:00,
2013-11-25 16:39:00,10.6,-60.2,30.20,North,0,0.0,0.0,1,0.00,,,0.00,WUHU216HW,2013-11-25 21:39:00,
2013-11-25 16:44:00,32.8,-17.8,30.20,North,0,0.0,0.0,1,0.00,,,0.00,WUHU216HW,2013-11-25 21:44:00,
2013-11-25 16:49:00,37.8,-13.9,30.20,North,0,0.0,0.0,1,0.00,,,0.00,WUHU216HW,2013-11-25 21:49:00,
2013-11-25 16:54:00,41.8,-10.8,30.19,North,0,0.0,0.0,1,0.00,,,0.00,WUHU216HW,2013-11-25 21:54:00,
2013-11-25 16:59:00,46.4,-7.2,30.20,North,0,0.0,0.0,1,0.00,,,0.00,WUHU216HW,2013-11-25 21:59:00,
2013-11-25 17:04:00,48.4,-5.7,30.20,North,0,0.0,0.0,1,0.00,,,0.00,WUHU216HW,2013-11-25 22:04:00,
2013-11-25 17:09:00,50.9,-3.8,30.20,North,0,0.0,0.0,1,0.00,,,0.00,WUHU216HW,2013-11-25 22:09:00,
2013-11-25 17:14:00,54.0,-1.3,30.20,North,0,0.0,0.0,1,0.00,,,0.00,WUHU216HW,2013-11-25 22:14:00,
2013-11-25 17:19:00,53.0,-32.4,30.20,North,0,0.0,0.0,1,0.00,,,0.00,WUHU216HW,2013-11-25 22:19:00,
2013-11-25 17:24:00,53.3,-32.1,30.20,North,0,0.0,0.0,1,0.00,,,0.00,WUHU216HW,2013-11-25 22:24:00,
2013-11-25 17:29:00,53.5,-32.0,30.20,North,0,0.0,0.0,1,0.00,,,0.00,WUHU216HW,2013-11-25 22:29:00,
2013-11-25 17:34:00,53.5,-32.0,30.20,North,0,0.0,0.0,1,0.00,,,0.00,WUHU216HW,2013-11-25 22:34:00,
2013-11-25 17:39:00,53.5,-32.0,30.19,North,0,0.0,0.0,1,0.00,,,0.00,WUHU216HW,2013-11-25 22:39:00,
2013-11-25 17:44:00,1.4,-66.4,30.19,North,0,0.0,0.0,1,0.00,,,0.00,WUHU216HW,2013-11-25 22:44:00,
2013-11-25 17:49:00,8.6,-36.9,30.19,North,0,0.0,0.0,1,0.00,,,0.00,WUHU216HW,2013-11-25 22:49:00,
2013-11-25 17:54:00,13.9,-32.8,30.20,North,0,0.0,0.0,1,0.00,,,0.00,WUHU216HW,2013-11-25 22:54:00,
2013-11-25 17:59:00,19.3,-28.4,30.20,North,0,0.0,0.0,1,0.00,,,0.00,WUHU216HW,2013-11-25 22:59:00,
2013-11-25 18:04:00,23.4,-25.3,30.20,North,0,0.0,0.0,1,0.00,,,0.00,WUHU216HW,2013-11-25 23:04:00,
2013-11-25 18:09:00,27.4,-22.1,30.19,North,0,0.0,0.0,1,0.00,,,0.00,WUHU216HW,2013-11-25 23:09:00,
2013-11-25 18:14:00,30.2,-19.8,30.19,North,0,0.0,0.0,1,0.00,,,0.00,WUHU216HW,2013-11-25 23:14:00,
2013-11-25 18:19:00,32.8,-17.8,30.20,North,0,0.0,0.0,1,0.00,,,0.00,WUHU216HW,2013-11-25 23:19:00,
2013-11-25 18:24:00,37.6,-14.0,30.20,North,0,0.0,0.0,1,0.00,,,0.00,WUHU216HW,2013-11-25 23:24:00,
2013-11-25 18:29:00,41.6,-11.0,30.20,North,0,0.0,0.0,1,0.00,,,0.00,WUHU216HW,2013-11-25 23:29:00,
2013-11-25 18:34:00,40.6,-40.4,30.19,North,0,0.0,0.0,1,0.00,,,0.00,WUHU216HW,2013-11-25 23:34:00,
2013-11-25 18:39:00,41.9,-39.6,30.19,North,0,0.0,0.0,1,0.00,,,0.00,WUHU216HW,2013-11-25 23:39:00,
2013-11-25 18:44:00,41.5,2.2,30.19,North,0,0.0,0.0,19,0.00,,,0.00,WUHU216HW,2013-11-25 23:44:00,
2013-11-25 18:49:00,41.8,-19.1,30.19,North,0,0.0,0.0,7,0.00,,,0.00,WUHU216HW,2013-11-25 23:49:00,
2013-11-25 18:54:00,41.7,-39.7,30.19,North,0,0.0,0.0,1,0.00,,,0.00,WUHU216HW,2013-11-25 23:54:00,
2013-11-25 18:59:00,-6.8,-71.9,30.19,North,0,0.0,0.0,1,0.00,,,0.00,WUHU216HW,2013-11-25 23:59:00,
2013-11-25 19:04:00,0.0,-67.3,30.18,North,0,0.0,0.0,1,0.00,,,0.00,WUHU216HW,2013-11-26 00:04:00,
2013-11-25 19:09:00,5.9,-63.4,30.18,North,0,0.0,0.0,1,0.00,,,0.00,WUHU216HW,2013-11-26 00:09:00,
2013-11-25 19:14:00,11.3,-59.8,30.19,North,0,0.0,0.0,1,0.00,,,0.00,WUHU216HW,2013-11-26 00:14:00,
2013-11-25 19:19:00,16.0,-30.9,30.18,North,0,0.0,0.0,1,0.00,,,0.00,WUHU216HW,2013-11-26 00:19:00,
2013-11-25 19:24:00,20.7,-27.3,30.18,North,0,0.0,0.0,1,0.00,,,0.00,WUHU216HW,2013-11-26 00:24:00,
2013-11-25 19:29:00,25.2,-23.8,30.18,North,0,0.0,0.0,1,0.00,,,0.00,WUHU216HW,2013-11-26 00:29:00,
2013-11-25 19:34:00,28.8,-21.0,30.18,North,0,0.0,0.0,1,0.00,,,0.00,WUHU216HW,2013-11-26 00:34:00,
2013-11-25 19:39:00,32.0,-18.4,30.17,North,0,0.0,0.0,1,0.00,,,0.00,WUHU216HW,2013-11-26 00:39:00,
2013-11-25 19:44:00,35.1,-16.1,30.17,North,0,0.0,0.0,1,0.00,,,0.00,WUHU216HW,2013-11-26 00:44:00,
2013-11-25 19:49:00,34.3,-44.5,30.17,North,0,0.0,0.0,1,0.00,,,0.00,WUHU216HW,2013-11-26 00:49:00,
2013-11-25 19:54:00,34.9,-44.2,30.17,North,0,0.0,0.0,1,0.00,,,0.00,WUHU216HW,2013-11-26 00:54:00,
2013-11-25 19:59:00,34.9,-44.2,30.17,North,0,0.0,0.0,1,0.00,,,0.00,WUHU216HW,2013-11-26 00:59:00,
2013-11-25 20:04:00,34.9,-9.6,30.18,North,0,0.0,0.0,14,0.00,,,0.00,WUHU216HW,2013-11-26 01:04:00,
2013-11-25 20:09:00,34.9,-9.6,30.18,North,0,0.0,0.0,14,0.00,,,0.00,WUHU216HW,2013-11-26 01:09:00,
2013-11-25 20:14:00,34.9,-44.2,30.19,North,0,0.0,0.0,1,0.00,,,0.00,WUHU216HW,2013-11-26 01:14:00,
2013-11-25 20:19:00,-5.2,-70.8,30.18,North,0,0.0,0.0,1,0.00,,,0.00,WUHU216HW,2013-11-26 01:19:00,
2013-11-25 20:24:00,0.9,-66.7,30.17,North,0,0.0,0.0,1,0.00,,,0.00,WUHU216HW,2013-11-26 01:24:00,
2013-11-25 20:29:00,6.3,-63.1,30.17,North,0,0.0,0.0,1,0.00,,,0.00,WUHU216HW,2013-11-26 01:29:00,
2013-11-25 20:34:00,10.4,-60.4,30.17,North,0,0.0,0.0,1,0.00,,,0.00,WUHU216HW,2013-11-26 01:34:00,
2013-11-25 20:39:00,14.2,-32.4,30.16,North,0,0.0,0.0,1,0.00,,,0.00,WUHU216HW,2013-11-26 01:39:00,
2013-11-25 20:44:00,17.3,-30.0,30.16,North,0,0.0,0.0,1,0.00,,,0.00,WUHU216HW,2013-11-26 01:44:00,
2013-11-25 20:49:00,20.5,-27.5,30.16,North,0,0.0,0.0,1,0.00,,,0.00,WUHU216HW,2013-11-26 01:49:00,
2013-11-25 20:54:00,24.7,-24.3,30.17,North,0,0.0,0.0,1,0.00,,,0.00,WUHU216HW,2013-11-26 01:54:00,
2013-11-25 20:59:00,27.7,-21.8,30.17,North,0,0.0,0.0,1,0.00,,,0.00,WUHU216HW,2013-11-26 01:59:00,
2013-11-25 21:04:00,26.8,-9.0,30.17,North,0,0.0,0.0,20,0.00,,,0.00,WUHU216HW,2013-11-26 02:04:00,
2013-11-25 21:09:00,27.8,-41.7,30.17,North,0,0.0,0.0,3,0.00,,,0.00,WUHU216HW,2013-11-26 02:09:00,
2013-11-25 21:14:00,27.8,-41.7,30.17,North,0,0.0,0.0,3,0.00,,,0.00,WUHU216HW,2013-11-26 02:14:00,
2013-11-25 21:19:00,-39.2,-62.7,30.16,North,0,0.0,0.0,23,0.00,,,0.00,WUHU216HW,2013-11-26 02:19:00,
2013-11-25 21:24:00,-39.2,-74.5,30.17,North,0,0.0,0.0,10,0.00,,,0.00,WUHU216HW,2013-11-26 02:24:00,
2013-11-25 21:29:00,-39.2,-74.5,30.17,North,0,0.0,0.0,10,0.00,,,0.00,WUHU216HW,2013-11-26 02:29:00,
2013-11-25 21:34:00,-16.9,-78.7,30.18,North,0,0.0,0.0,1,0.00,,,0.00,WUHU216HW,2013-11-26 02:34:00,
2013-11-25 21:39:00,-16.2,-45.2,30.18,North,0,0.0,0.0,20,0.00,,,0.00,WUHU216HW,2013-11-26 02:39:00,
2013-11-25 21:44:00,-18.2,-66.2,30.18,North,0,0.0,0.0,6,0.00,,,0.00,WUHU216HW,2013-11-26 02:44:00,
2013-11-25 21:49:00,-18.9,-63.9,30.18,North,0,0.0,0.0,7,0.00,,,0.00,WUHU216HW,2013-11-26 02:49:00,
2013-11-25 21:54:00,-17.6,-22.5,30.17,North,0,0.0,0.0,78,0.00,,,0.00,WUHU216HW,2013-11-26 02:54:00,
2013-11-25 21:59:00,-16.6,-25.9,30.17,North,0,0.0,0.0,61,0.00,,,0.00,WUHU216HW,2013-11-26 02:59:00,
2013-11-25 22:04:00,-16.4,-20.4,30.17,North,0,0.0,0.0,82,0.00,,,0.00,WUHU216HW,2013-11-26 03:04:00,
2013-11-25 22:09:00,-14.0,-15.7,30.16,North,0,0.0,0.0,92,0.00,,,0.00,WUHU216HW,2013-11-26 03:09:00,
2013-11-25 22:14:00,-7.2,-7.8,30.16,North,0,0.0,0.0,97,0.00,,,0.00,WUHU216HW,2013-11-26 03:14:00,
2013-11-25 22:19:00,-3.2,-3.7,30.15,North,0,0.0,0.0,98,0.00,,,0.00,WUHU216HW,2013-11-26 03:19:00,
2013-11-25 22:24:00,-5.3,-6.5,30.15,North,0,0.0,0.0,95,0.00,,,0.00,WUHU216HW,2013-11-26 03:24:00,
2013-11-25 22:29:00,-5.6,-7.1,30.14,North,0,0.0,0.0,93,0.00,,,0.00,WUHU216HW,2013-11-26 03:29:00,
2013-11-25 22:34:00,-39.2,-46.4,30.15,North,0,0.0,0.0,65,0.00,,,0.00,WUHU216HW,2013-11-26 03:34:00,
2013-11-25 22:39:00,-39.2,-44.0,30.15,North,0,0.0,0.0,75,0.00,,,0.00,WUHU216HW,2013-11-26 03:39:00,
2013-11-25 22:44:00,-39.2,-44.0,30.14,North,0,0.0,0.0,75,0.00,,,0.00,WUHU216HW,2013-11-26 03:44:00,
2013-11-25 22:49:00,-39.2,-42.8,30.14,North,0,0.0,0.0,81,0.00,,,0.00,WUHU216HW,2013-11-26 03:49:00,
2013-11-25 22:54:00,-39.2,-42.4,30.13,North,0,0.0,0.0,83,0.00,,,0.00,WUHU216HW,2013-11-26 03:54:00,
2013-11-25 22:59:00,-39.2,-42.4,30.13,North,0,0.0,0.0,83,0.00,,,0.00,WUHU216HW,2013-11-26 03:59:00,
2013-11-25 23:04:00,-39.2,-41.8,30.13,North,0,0.0,0.0,86,0.00,,,0.00,WUHU216HW,2013-11-26 04:04:00,
2013-11-25 23:09:00,-39.2,-41.2,30.13,North,0,0.0,0.0,89,0.00,,,0.00,WUHU216HW,2013-11-26 04:09:00,
2013-11-25 23:14:00,-39.2,-41.2,30.12,North,0,0.0,0.0,89,0.00,,,0.00,WUHU216HW,2013-11-26 04:14:00,
2013-11-25 23:19:00,-39.2,-41.2,30.12,North,0,0.0,0.0,89,0.00,,,0.00,WUHU216HW,2013-11-26 04:19:00,
2013-11-25 23:24:00,-39.2,-41.2,30.12,North,0,0.0,0.0,89,0.00,,,0.00,WUHU216HW,2013-11-26 04:24:00,
2013-11-25 23:29:00,-38.9,-40.5,30.11,North,0,0.0,0.0,91,0.00,,,0.00,WUHU216HW,2013-11-26 04:29:00,
2013-11-25 23:34:00,-37.8,-39.4,30.11,North,0,0.0,0.0,92,0.00,,,0.00,WUHU216HW,2013-11-26 04:34:00,
2013-11-25 23:39:00,-39.2,-44.7,30.11,North,0,0.0,0.0,72,0.00,,,0.00,WUHU216HW,2013-11-26 04:39:00,
2013-11-25 23:44:00,-39.2,-44.7,30.11,North,0,0.0,0.0,72,0.00,,,0.00,WUHU216HW,2013-11-26 04:44:00,
2013-11-25 23:49:00,-39.2,-44.0,30.11,North,0,0.0,0.0,75,0.00,,,0.00,WUHU216HW,2013-11-26 04:49:00,
2013-11-25 23:54:00,-39.2,-44.0,30.11,North,0,0.0,0.0,75,0.00,,,0.00,WUHU216HW,2013-11-26 04:54:00,
2013-11-25 23:59:00,-39.2,-43.2,30.10,North,0,0.0,0.0,79,0.00,,,0.00,WUHU216HW,2013-11-26 04:59:00,